sensor_id;sensor_type;location;lat;lon;timestamp;pressure;altitude;pressure_sealevel;temperature;humidity
7170;BME280;3626;42.656;23.312;2023-04-16T00:00:07;94024.78;;;10.08;66.19
7170;BME280;3626;42.656;23.312;2023-04-16T00:00:13;94026.56;;;10.08;65.78
7170;BME280;3626;42.656;23.312;2023-04-16T00:00:19;94031.72;;;10.08;66.01
7170;BME280;3626;42.656;23.312;2023-04-16T00:00:26;94027.53;;;10.07;66.00
7170;BME280;3626;42.656;23.312;2023-04-16T00:00:32;94026.56;;;10.08;66.04
7170;BME280;3626;42.656;23.312;2023-04-16T00:00:38;94020.78;;;10.06;66.10
7170;BME280;3626;42.656;23.312;2023-04-16T00:00:47;94024.94;;;10.07;66.22
7170;BME280;3626;42.656;23.312;2023-04-16T00:00:53;94026.72;;;10.06;66.13
7170;BME280;3626;42.656;23.312;2023-04-16T00:00:59;94023.34;;;10.06;65.86
7170;BME280;3626;42.656;23.312;2023-04-16T00:01:05;94020.78;;;10.06;65.76
7170;BME280;3626;42.656;23.312;2023-04-16T00:01:17;94019.00;;;10.06;66.11
7170;BME280;3626;42.656;23.312;2023-04-16T00:01:23;94022.56;;;10.05;66.26
7170;BME280;3626;42.656;23.312;2023-04-16T00:01:29;94015.81;;;10.04;65.96
7170;BME280;3626;42.656;23.312;2023-04-16T00:01:35;94020.16;;;10.04;66.00
7170;BME280;3626;42.656;23.312;2023-04-16T00:01:41;94019.38;;;10.03;65.65
7170;BME280;3626;42.656;23.312;2023-04-16T00:01:47;94020.97;;;10.04;66.08
7170;BME280;3626;42.656;23.312;2023-04-16T00:01:53;94021.16;;;10.02;65.94
7170;BME280;3626;42.656;23.312;2023-04-16T00:01:59;94024.53;;;10.03;66.09
7170;BME280;3626;42.656;23.312;2023-04-16T00:02:07;94021.94;;;10.03;65.78
7170;BME280;3626;42.656;23.312;2023-04-16T00:02:13;94018.56;;;10.02;65.82
7170;BME280;3626;42.656;23.312;2023-04-16T00:02:20;94021.16;;;10.02;65.95
7170;BME280;3626;42.656;23.312;2023-04-16T00:02:26;94022.91;;;10.02;66.00
7170;BME280;3626;42.656;23.312;2023-04-16T00:02:32;94027.25;;;10.01;66.11
7170;BME280;3626;42.656;23.312;2023-04-16T00:02:38;94023.09;;;10.00;65.96
7170;BME280;3626;42.656;23.312;2023-04-16T00:02:44;94018.91;;;9.99;66.01
7170;BME280;3626;42.656;23.312;2023-04-16T00:02:50;94022.47;;;9.98;66.09
7170;BME280;3626;42.656;23.312;2023-04-16T00:02:56;94023.28;;;9.99;66.05
7170;BME280;3626;42.656;23.312;2023-04-16T00:03:02;94017.31;;;9.98;66.31
7170;BME280;3626;42.656;23.312;2023-04-16T00:03:08;94027.63;;;9.98;66.05
7170;BME280;3626;42.656;23.312;2023-04-16T00:03:14;94024.22;;;9.98;65.92
7170;BME280;3626;42.656;23.312;2023-04-16T00:03:20;94021.66;;;9.98;66.21
7170;BME280;3626;42.656;23.312;2023-04-16T00:03:26;94021.84;;;9.96;66.29
7170;BME280;3626;42.656;23.312;2023-04-16T00:03:32;94025.22;;;9.97;66.30
7170;BME280;3626;42.656;23.312;2023-04-16T00:03:38;94022.63;;;9.97;66.56
7170;BME280;3626;42.656;23.312;2023-04-16T00:03:45;94025.22;;;9.97;65.88
7170;BME280;3626;42.656;23.312;2023-04-16T00:03:51;94025.22;;;9.97;66.28
7170;BME280;3626;42.656;23.312;2023-04-16T00:03:57;94021.84;;;9.96;66.45
7170;BME280;3626;42.656;23.312;2023-04-16T00:04:04;94025.22;;;9.97;66.08
7170;BME280;3626;42.656;23.312;2023-04-16T00:04:10;94023.44;;;9.97;66.43
7170;BME280;3626;42.656;23.312;2023-04-16T00:04:16;94027.00;;;9.96;66.28
7170;BME280;3626;42.656;23.312;2023-04-16T00:04:22;94025.22;;;9.97;66.20
7170;BME280;3626;42.656;23.312;2023-04-16T00:04:28;94017.66;;;9.95;66.14
7170;BME280;3626;42.656;23.312;2023-04-16T00:04:34;94020.25;;;9.95;66.25
7170;BME280;3626;42.656;23.312;2023-04-16T00:04:40;94021.03;;;9.96;66.23
7170;BME280;3626;42.656;23.312;2023-04-16T00:04:46;94015.88;;;9.96;66.20
7170;BME280;3626;42.656;23.312;2023-04-16T00:04:52;94021.03;;;9.96;65.93
7170;BME280;3626;42.656;23.312;2023-04-16T00:05:01;94020.25;;;9.95;66.00
7170;BME280;3626;42.656;23.312;2023-04-16T00:05:07;94017.66;;;9.95;66.47
7170;BME280;3626;42.656;23.312;2023-04-16T00:05:13;94024.41;;;9.96;66.44
7170;BME280;3626;42.656;23.312;2023-04-16T00:05:19;94016.69;;;9.96;66.30
7170;BME280;3626;42.656;23.312;2023-04-16T00:05:25;94023.44;;;9.97;66.24
7170;BME280;3626;42.656;23.312;2023-04-16T00:05:32;94020.06;;;9.97;66.43
7170;BME280;3626;42.656;23.312;2023-04-16T00:05:38;94020.06;;;9.97;66.29
7170;BME280;3626;42.656;23.312;2023-04-16T00:05:44;94019.25;;;9.96;66.17
7170;BME280;3626;42.656;23.312;2023-04-16T00:05:50;94023.44;;;9.97;66.33
7170;BME280;3626;42.656;23.312;2023-04-16T00:05:56;94021.66;;;9.98;65.98
7170;BME280;3626;42.656;23.312;2023-04-16T00:06:02;94024.22;;;9.98;66.31
7170;BME280;3626;42.656;23.312;2023-04-16T00:06:09;94020.06;;;9.97;66.26
7170;BME280;3626;42.656;23.312;2023-04-16T00:06:17;94020.06;;;9.97;66.26
7170;BME280;3626;42.656;23.312;2023-04-16T00:06:22;94020.84;;;9.97;66.42
7170;BME280;3626;42.656;23.312;2023-04-16T00:06:29;94024.22;;;9.98;66.02
7170;BME280;3626;42.656;23.312;2023-04-16T00:06:34;94020.06;;;9.97;66.19
7170;BME280;3626;42.656;23.312;2023-04-16T00:06:40;94018.28;;;9.97;66.33
7170;BME280;3626;42.656;23.312;2023-04-16T00:06:48;94019.25;;;9.96;66.46
7170;BME280;3626;42.656;23.312;2023-04-16T00:06:54;94023.63;;;9.96;66.27
7170;BME280;3626;42.656;23.312;2023-04-16T00:07:00;94027.00;;;9.96;66.26
7170;BME280;3626;42.656;23.312;2023-04-16T00:07:06;94022.03;;;9.95;66.28
7170;BME280;3626;42.656;23.312;2023-04-16T00:07:12;94022.03;;;9.95;66.40
7170;BME280;3626;42.656;23.312;2023-04-16T00:07:18;94022.03;;;9.95;66.12
7170;BME280;3626;42.656;23.312;2023-04-16T00:07:24;94023.81;;;9.94;66.62
7170;BME280;3626;42.656;23.312;2023-04-16T00:07:30;94021.22;;;9.94;66.49
7170;BME280;3626;42.656;23.312;2023-04-16T00:07:36;94021.22;;;9.94;66.34
7170;BME280;3626;42.656;23.312;2023-04-16T00:07:42;94021.22;;;9.94;66.14
7170;BME280;3626;42.656;23.312;2023-04-16T00:07:49;94020.41;;;9.94;66.32
7170;BME280;3626;42.656;23.312;2023-04-16T00:07:56;94022.19;;;9.93;66.48
7170;BME280;3626;42.656;23.312;2023-04-16T00:08:02;94015.44;;;9.92;66.71
7170;BME280;3626;42.656;23.312;2023-04-16T00:08:08;94023.97;;;9.93;66.45
7170;BME280;3626;42.656;23.312;2023-04-16T00:08:14;94018.00;;;9.92;66.81
7170;BME280;3626;42.656;23.312;2023-04-16T00:08:21;94023.16;;;9.92;66.49
7170;BME280;3626;42.656;23.312;2023-04-16T00:08:28;94023.16;;;9.92;66.49
7170;BME280;3626;42.656;23.312;2023-04-16T00:08:34;94018.00;;;9.92;66.69
7170;BME280;3626;42.656;23.312;2023-04-16T00:08:41;94020.59;;;9.92;66.24
7170;BME280;3626;42.656;23.312;2023-04-16T00:08:48;94023.97;;;9.93;66.79
7170;BME280;3626;42.656;23.312;2023-04-16T00:08:54;94025.75;;;9.92;66.81
7170;BME280;3626;42.656;23.312;2023-04-16T00:09:00;94028.31;;;9.92;66.87
7170;BME280;3626;42.656;23.312;2023-04-16T00:09:09;94022.38;;;9.92;66.90
7170;BME280;3626;42.656;23.312;2023-04-16T00:09:15;94022.38;;;9.92;66.72
7170;BME280;3626;42.656;23.312;2023-04-16T00:09:21;94027.53;;;9.92;66.74
7170;BME280;3626;42.656;23.312;2023-04-16T00:09:27;94022.38;;;9.92;66.97
7170;BME280;3626;42.656;23.312;2023-04-16T00:09:33;94021.56;;;9.91;66.74
7170;BME280;3626;42.656;23.312;2023-04-16T00:09:39;94022.38;;;9.92;66.82
7170;BME280;3626;42.656;23.312;2023-04-16T00:09:45;94019.78;;;9.92;66.74
7170;BME280;3626;42.656;23.312;2023-04-16T00:09:51;94021.56;;;9.91;66.66
7170;BME280;3626;42.656;23.312;2023-04-16T00:09:59;94017.41;;;9.90;67.17
7170;BME280;3626;42.656;23.312;2023-04-16T00:10:06;94019.97;;;9.90;66.63
7170;BME280;3626;42.656;23.312;2023-04-16T00:10:13;94019.97;;;9.90;66.93
7170;BME280;3626;42.656;23.312;2023-04-16T00:10:19;94016.41;;;9.91;66.93
7170;BME280;3626;42.656;23.312;2023-04-16T00:10:25;94023.34;;;9.91;66.97
7170;BME280;3626;42.656;23.312;2023-04-16T00:10:34;94025.13;;;9.90;66.95
7170;BME280;3626;42.656;23.312;2023-04-16T00:10:40;94024.16;;;9.91;67.07
7170;BME280;3626;42.656;23.312;2023-04-16T00:10:46;94019.78;;;9.92;67.11
7170;BME280;3626;42.656;23.312;2023-04-16T00:10:52;94023.16;;;9.92;66.72
7170;BME280;3626;42.656;23.312;2023-04-16T00:10:58;94014.63;;;9.92;67.12
7170;BME280;3626;42.656;23.312;2023-04-16T00:11:04;94022.38;;;9.92;66.85
7170;BME280;3626;42.656;23.312;2023-04-16T00:11:10;94016.41;;;9.91;66.73
7170;BME280;3626;42.656;23.312;2023-04-16T00:11:16;94019.00;;;9.91;66.95
7170;BME280;3626;42.656;23.312;2023-04-16T00:11:22;94026.72;;;9.91;66.93
7170;BME280;3626;42.656;23.312;2023-04-16T00:11:28;94013.03;;;9.91;66.86
7170;BME280;3626;42.656;23.312;2023-04-16T00:11:34;94020.78;;;9.91;67.12
7170;BME280;3626;42.656;23.312;2023-04-16T00:11:40;94017.41;;;9.90;66.97
7170;BME280;3626;42.656;23.312;2023-04-16T00:11:46;94018.34;;;9.89;67.07
7170;BME280;3626;42.656;23.312;2023-04-16T00:11:52;94025.28;;;9.89;66.94
7170;BME280;3626;42.656;23.312;2023-04-16T00:12:00;94023.50;;;9.89;67.10
7170;BME280;3626;42.656;23.312;2023-04-16T00:12:06;94024.34;;;9.90;66.88
7170;BME280;3626;42.656;23.312;2023-04-16T00:12:12;94015.97;;;9.88;66.92
7170;BME280;3626;42.656;23.312;2023-04-16T00:12:18;94013.38;;;9.88;67.09
7170;BME280;3626;42.656;23.312;2023-04-16T00:12:24;94020.13;;;9.89;67.13
7170;BME280;3626;42.656;23.312;2023-04-16T00:12:30;94020.94;;;9.89;67.41
7170;BME280;3626;42.656;23.312;2023-04-16T00:12:36;94021.13;;;9.88;67.13
7170;BME280;3626;42.656;23.312;2023-04-16T00:12:42;94024.50;;;9.88;67.28
7170;BME280;3626;42.656;23.312;2023-04-16T00:12:48;94018.53;;;9.88;67.24
7170;BME280;3626;42.656;23.312;2023-04-16T00:12:53;94024.50;;;9.88;67.39
7170;BME280;3626;42.656;23.312;2023-04-16T00:12:59;94020.31;;;9.87;67.19
7170;BME280;3626;42.656;23.312;2023-04-16T00:13:05;94018.53;;;9.88;67.31
7170;BME280;3626;42.656;23.312;2023-04-16T00:13:11;94020.31;;;9.87;67.35
7170;BME280;3626;42.656;23.312;2023-04-16T00:13:17;94015.16;;;9.87;67.27
7170;BME280;3626;42.656;23.312;2023-04-16T00:13:23;94020.31;;;9.87;67.61
7170;BME280;3626;42.656;23.312;2023-04-16T00:13:31;94019.53;;;9.87;67.30
7170;BME280;3626;42.656;23.312;2023-04-16T00:13:37;94019.53;;;9.87;67.12
7170;BME280;3626;42.656;23.312;2023-04-16T00:13:44;94016.16;;;9.86;67.31
7170;BME280;3626;42.656;23.312;2023-04-16T00:13:50;94024.69;;;9.87;67.82
7170;BME280;3626;42.656;23.312;2023-04-16T00:13:56;94018.72;;;9.86;67.46
7170;BME280;3626;42.656;23.312;2023-04-16T00:14:02;94018.72;;;9.86;67.36
7170;BME280;3626;42.656;23.312;2023-04-16T00:14:09;94020.50;;;9.86;67.32
7170;BME280;3626;42.656;23.312;2023-04-16T00:14:15;94019.53;;;9.87;67.60
7170;BME280;3626;42.656;23.312;2023-04-16T00:14:22;94018.72;;;9.86;67.33
7170;BME280;3626;42.656;23.312;2023-04-16T00:14:29;94020.50;;;9.86;67.32
7170;BME280;3626;42.656;23.312;2023-04-16T00:14:35;94019.69;;;9.85;67.64
7170;BME280;3626;42.656;23.312;2023-04-16T00:14:41;94022.25;;;9.85;67.86
7170;BME280;3626;42.656;23.312;2023-04-16T00:14:48;94019.69;;;9.85;67.63
7170;BME280;3626;42.656;23.312;2023-04-16T00:14:53;94020.66;;;9.84;67.53
7170;BME280;3626;42.656;23.312;2023-04-16T00:14:59;94017.28;;;9.84;67.84
7170;BME280;3626;42.656;23.312;2023-04-16T00:15:06;94019.06;;;9.83;67.77
7170;BME280;3626;42.656;23.312;2023-04-16T00:15:12;94021.66;;;9.83;67.97
7170;BME280;3626;42.656;23.312;2023-04-16T00:15:21;94016.50;;;9.83;68.01
7170;BME280;3626;42.656;23.312;2023-04-16T00:15:27;94018.28;;;9.83;68.07
7170;BME280;3626;42.656;23.312;2023-04-16T00:15:33;94026.81;;;9.83;67.53
7170;BME280;3626;42.656;23.312;2023-04-16T00:15:39;94020.84;;;9.83;67.78
7170;BME280;3626;42.656;23.312;2023-04-16T00:15:45;94020.84;;;9.83;67.83
7170;BME280;3626;42.656;23.312;2023-04-16T00:15:51;94021.84;;;9.82;67.94
7170;BME280;3626;42.656;23.312;2023-04-16T00:15:57;94021.66;;;9.83;67.90
7170;BME280;3626;42.656;23.312;2023-04-16T00:16:03;94020.84;;;9.83;67.61
7170;BME280;3626;42.656;23.312;2023-04-16T00:16:10;94023.44;;;9.83;67.71
7170;BME280;3626;42.656;23.312;2023-04-16T00:16:16;94018.44;;;9.81;68.02
7170;BME280;3626;42.656;23.312;2023-04-16T00:16:22;94021.00;;;9.81;68.03
7170;BME280;3626;42.656;23.312;2023-04-16T00:16:28;94018.44;;;9.81;68.10
7170;BME280;3626;42.656;23.312;2023-04-16T00:16:34;94020.22;;;9.81;67.99
7170;BME280;3626;42.656;23.312;2023-04-16T00:16:40;94020.22;;;9.81;68.15
7170;BME280;3626;42.656;23.312;2023-04-16T00:16:48;94013.28;;;9.81;67.75
7170;BME280;3626;42.656;23.312;2023-04-16T00:16:54;94021.00;;;9.81;68.25
7170;BME280;3626;42.656;23.312;2023-04-16T00:17:00;94026.16;;;9.81;68.03
7170;BME280;3626;42.656;23.312;2023-04-16T00:17:06;94016.69;;;9.82;67.80
7170;BME280;3626;42.656;23.312;2023-04-16T00:17:12;94019.25;;;9.82;67.96
7170;BME280;3626;42.656;23.312;2023-04-16T00:17:18;94017.63;;;9.81;68.11
7170;BME280;3626;42.656;23.312;2023-04-16T00:17:24;94014.09;;;9.82;68.22
7170;BME280;3626;42.656;23.312;2023-04-16T00:17:30;94020.06;;;9.82;67.69
7170;BME280;3626;42.656;23.312;2023-04-16T00:17:36;94014.91;;;9.82;68.01
7170;BME280;3626;42.656;23.312;2023-04-16T00:17:42;94015.84;;;9.81;68.39
7170;BME280;3626;42.656;23.312;2023-04-16T00:17:48;94020.22;;;9.81;67.98
7170;BME280;3626;42.656;23.312;2023-04-16T00:17:54;94016.69;;;9.82;67.84
7170;BME280;3626;42.656;23.312;2023-04-16T00:18:00;94021.00;;;9.81;67.96
7170;BME280;3626;42.656;23.312;2023-04-16T00:18:06;94020.22;;;9.81;67.89
7170;BME280;3626;42.656;23.312;2023-04-16T00:18:12;94023.44;;;9.83;67.98
7170;BME280;3626;42.656;23.312;2023-04-16T00:18:18;94018.28;;;9.83;68.12
7170;BME280;3626;42.656;23.312;2023-04-16T00:18:25;94018.44;;;9.81;68.20
7170;BME280;3626;42.656;23.312;2023-04-16T00:18:32;94015.84;;;9.81;67.99
7170;BME280;3626;42.656;23.312;2023-04-16T00:18:38;94014.25;;;9.80;67.84
7170;BME280;3626;42.656;23.312;2023-04-16T00:18:44;94016.03;;;9.80;68.22
7170;BME280;3626;42.656;23.312;2023-04-16T00:18:50;94014.25;;;9.80;67.85
7170;BME280;3626;42.656;23.312;2023-04-16T00:18:55;94015.25;;;9.79;68.16
7170;BME280;3626;42.656;23.312;2023-04-16T00:19:01;94012.69;;;9.79;67.98
7170;BME280;3626;42.656;23.312;2023-04-16T00:19:07;94017.81;;;9.79;68.24
7170;BME280;3626;42.656;23.312;2023-04-16T00:19:13;94014.25;;;9.80;68.06
7170;BME280;3626;42.656;23.312;2023-04-16T00:19:19;94020.41;;;9.79;67.85
7170;BME280;3626;42.656;23.312;2023-04-16T00:19:25;94012.69;;;9.79;68.23
7170;BME280;3626;42.656;23.312;2023-04-16T00:19:31;94015.25;;;9.79;68.08
7170;BME280;3626;42.656;23.312;2023-04-16T00:19:37;94011.88;;;9.79;68.44
7170;BME280;3626;42.656;23.312;2023-04-16T00:19:43;94014.25;;;9.80;68.20
7170;BME280;3626;42.656;23.312;2023-04-16T00:19:52;94020.41;;;9.79;67.94
7170;BME280;3626;42.656;23.312;2023-04-16T00:19:58;94019.41;;;9.80;68.16
7170;BME280;3626;42.656;23.312;2023-04-16T00:20:05;94011.09;;;9.78;68.16
7170;BME280;3626;42.656;23.312;2023-04-16T00:20:11;94014.25;;;9.80;68.20
7170;BME280;3626;42.656;23.312;2023-04-16T00:20:19;94012.69;;;9.79;67.95
7170;BME280;3626;42.656;23.312;2023-04-16T00:20:25;94009.31;;;9.79;68.26
7170;BME280;3626;42.656;23.312;2023-04-16T00:20:31;94016.03;;;9.80;68.24
7170;BME280;3626;42.656;23.312;2023-04-16T00:20:37;94011.69;;;9.80;68.08
7170;BME280;3626;42.656;23.312;2023-04-16T00:20:43;94020.22;;;9.81;68.35
7170;BME280;3626;42.656;23.312;2023-04-16T00:20:50;94016.03;;;9.80;68.08
7170;BME280;3626;42.656;23.312;2023-04-16T00:20:56;94011.69;;;9.80;67.98
7170;BME280;3626;42.656;23.312;2023-04-16T00:21:02;94012.69;;;9.79;68.08
7170;BME280;3626;42.656;23.312;2023-04-16T00:21:08;94019.59;;;9.79;68.77
7170;BME280;3626;42.656;23.312;2023-04-16T00:21:17;94021.19;;;9.80;69.01
7170;BME280;3626;42.656;23.312;2023-04-16T00:21:23;94020.41;;;9.79;68.84
7170;BME280;3626;42.656;23.312;2023-04-16T00:21:30;94017.03;;;9.79;69.21
7170;BME280;3626;42.656;23.312;2023-04-16T00:21:37;94019.59;;;9.79;69.25
7170;BME280;3626;42.656;23.312;2023-04-16T00:21:43;94020.41;;;9.79;69.56
7170;BME280;3626;42.656;23.312;2023-04-16T00:21:49;94016.84;;;9.80;69.27
7170;BME280;3626;42.656;23.312;2023-04-16T00:21:54;94017.81;;;9.79;69.44
7170;BME280;3626;42.656;23.312;2023-04-16T00:22:00;94016.03;;;9.80;69.40
7170;BME280;3626;42.656;23.312;2023-04-16T00:22:06;94025.38;;;9.81;69.27
7170;BME280;3626;42.656;23.312;2023-04-16T00:22:12;94024.41;;;9.82;69.25
7170;BME280;3626;42.656;23.312;2023-04-16T00:22:18;94015.06;;;9.81;69.46
7170;BME280;3626;42.656;23.312;2023-04-16T00:22:24;94017.47;;;9.82;69.46
7170;BME280;3626;42.656;23.312;2023-04-16T00:22:30;94017.47;;;9.82;69.26
7170;BME280;3626;42.656;23.312;2023-04-16T00:22:38;94014.25;;;9.80;69.34
7170;BME280;3626;42.656;23.312;2023-04-16T00:22:47;94015.84;;;9.81;69.35
7170;BME280;3626;42.656;23.312;2023-04-16T00:22:53;94018.28;;;9.83;69.39
7170;BME280;3626;42.656;23.312;2023-04-16T00:22:59;94022.63;;;9.82;69.69
7170;BME280;3626;42.656;23.312;2023-04-16T00:23:05;94016.69;;;9.82;69.83
7170;BME280;3626;42.656;23.312;2023-04-16T00:23:11;94021.00;;;9.81;69.95
7170;BME280;3626;42.656;23.312;2023-04-16T00:23:17;94014.09;;;9.82;69.73
7170;BME280;3626;42.656;23.312;2023-04-16T00:23:23;94021.00;;;9.81;69.48
7170;BME280;3626;42.656;23.312;2023-04-16T00:23:29;94019.41;;;9.80;69.79
7170;BME280;3626;42.656;23.312;2023-04-16T00:23:36;94015.06;;;9.81;69.69
7170;BME280;3626;42.656;23.312;2023-04-16T00:23:44;94026.34;;;9.80;69.78
7170;BME280;3626;42.656;23.312;2023-04-16T00:23:51;94019.41;;;9.80;69.72
7170;BME280;3626;42.656;23.312;2023-04-16T00:23:56;94019.41;;;9.80;69.93
7170;BME280;3626;42.656;23.312;2023-04-16T00:24:02;94018.63;;;9.80;70.21
7170;BME280;3626;42.656;23.312;2023-04-16T00:24:11;94025.56;;;9.79;69.97
7170;BME280;3626;42.656;23.312;2023-04-16T00:24:17;94016.22;;;9.78;70.12
7170;BME280;3626;42.656;23.312;2023-04-16T00:24:24;94014.25;;;9.80;70.16
7170;BME280;3626;42.656;23.312;2023-04-16T00:24:30;94018.81;;;9.78;70.17
7170;BME280;3626;42.656;23.312;2023-04-16T00:24:35;94020.41;;;9.79;70.10
7170;BME280;3626;42.656;23.312;2023-04-16T00:24:41;94020.41;;;9.79;70.10
7170;BME280;3626;42.656;23.312;2023-04-16T00:24:47;94021.38;;;9.78;69.87
7170;BME280;3626;42.656;23.312;2023-04-16T00:24:53;94021.38;;;9.78;70.46
7170;BME280;3626;42.656;23.312;2023-04-16T00:24:59;94014.63;;;9.77;70.24
7170;BME280;3626;42.656;23.312;2023-04-16T00:25:06;94023.16;;;9.77;70.34
7170;BME280;3626;42.656;23.312;2023-04-16T00:25:12;94020.75;;;9.76;70.31
7170;BME280;3626;42.656;23.312;2023-04-16T00:25:18;94012.22;;;9.75;70.43
7170;BME280;3626;42.656;23.312;2023-04-16T00:25:24;94018.00;;;9.77;70.05
7170;BME280;3626;42.656;23.312;2023-04-16T00:25:31;94023.31;;;9.76;70.14
7170;BME280;3626;42.656;23.312;2023-04-16T00:25:37;94019.78;;;9.77;70.22
7170;BME280;3626;42.656;23.312;2023-04-16T00:25:43;94023.31;;;9.76;70.36
7170;BME280;3626;42.656;23.312;2023-04-16T00:25:49;94018.16;;;9.76;70.42
7170;BME280;3626;42.656;23.312;2023-04-16T00:25:55;94013.00;;;9.76;70.45
7170;BME280;3626;42.656;23.312;2023-04-16T00:26:04;94023.31;;;9.76;70.35
7170;BME280;3626;42.656;23.312;2023-04-16T00:26:10;94018.16;;;9.76;70.40
7170;BME280;3626;42.656;23.312;2023-04-16T00:26:16;94020.75;;;9.76;70.40
7170;BME280;3626;42.656;23.312;2023-04-16T00:26:23;94013.00;;;9.76;70.59
7170;BME280;3626;42.656;23.312;2023-04-16T00:26:29;94019.94;;;9.75;70.42
7170;BME280;3626;42.656;23.312;2023-04-16T00:26:36;94018.16;;;9.76;70.52
7170;BME280;3626;42.656;23.312;2023-04-16T00:26:45;94019.16;;;9.75;70.50
7170;BME280;3626;42.656;23.312;2023-04-16T00:26:51;94015.78;;;9.74;70.37
7170;BME280;3626;42.656;23.312;2023-04-16T00:26:57;94011.44;;;9.75;70.39
7170;BME280;3626;42.656;23.312;2023-04-16T00:27:03;94011.44;;;9.75;70.58
7170;BME280;3626;42.656;23.312;2023-04-16T00:27:09;94016.56;;;9.75;70.54
7170;BME280;3626;42.656;23.312;2023-04-16T00:27:15;94016.56;;;9.75;70.17
7170;BME280;3626;42.656;23.312;2023-04-16T00:27:21;94013.19;;;9.74;70.10
7170;BME280;3626;42.656;23.312;2023-04-16T00:27:27;94021.72;;;9.75;70.49
7170;BME280;3626;42.656;23.312;2023-04-16T00:27:33;94019.16;;;9.75;70.29
7170;BME280;3626;42.656;23.312;2023-04-16T00:27:39;94022.53;;;9.75;70.55
7170;BME280;3626;42.656;23.312;2023-04-16T00:27:45;94022.72;;;9.74;70.19
7170;BME280;3626;42.656;23.312;2023-04-16T00:27:50;94015.78;;;9.74;70.42
7170;BME280;3626;42.656;23.312;2023-04-16T00:27:56;94014.00;;;9.75;70.43
7170;BME280;3626;42.656;23.312;2023-04-16T00:28:03;94016.56;;;9.75;70.01
7170;BME280;3626;42.656;23.312;2023-04-16T00:28:09;94017.56;;;9.74;69.85
7170;BME280;3626;42.656;23.312;2023-04-16T00:28:15;94020.13;;;9.74;70.15
7170;BME280;3626;42.656;23.312;2023-04-16T00:28:21;94019.16;;;9.75;69.85
7170;BME280;3626;42.656;23.312;2023-04-16T00:28:28;94020.94;;;9.74;70.02
7170;BME280;3626;42.656;23.312;2023-04-16T00:28:35;94014.97;;;9.74;69.80
7170;BME280;3626;42.656;23.312;2023-04-16T00:28:41;94014.97;;;9.74;69.72
7170;BME280;3626;42.656;23.312;2023-04-16T00:28:46;94014.97;;;9.74;69.49
7170;BME280;3626;42.656;23.312;2023-04-16T00:28:52;94017.56;;;9.74;69.60
7170;BME280;3626;42.656;23.312;2023-04-16T00:28:58;94013.38;;;9.73;69.07
7170;BME280;3626;42.656;23.312;2023-04-16T00:29:04;94008.22;;;9.73;68.77
7170;BME280;3626;42.656;23.312;2023-04-16T00:29:10;94011.75;;;9.72;68.94
7170;BME280;3626;42.656;23.312;2023-04-16T00:29:16;94015.13;;;9.72;68.96
7170;BME280;3626;42.656;23.312;2023-04-16T00:29:24;94009.19;;;9.72;68.55
7170;BME280;3626;42.656;23.312;2023-04-16T00:29:33;94011.75;;;9.72;68.74
7170;BME280;3626;42.656;23.312;2023-04-16T00:29:39;94006.81;;;9.70;68.70
7170;BME280;3626;42.656;23.312;2023-04-16T00:29:45;94017.91;;;9.71;68.53
7170;BME280;3626;42.656;23.312;2023-04-16T00:29:51;94011.16;;;9.70;68.45
7170;BME280;3626;42.656;23.312;2023-04-16T00:29:57;94011.31;;;9.68;68.83
7170;BME280;3626;42.656;23.312;2023-04-16T00:30:03;94015.66;;;9.68;68.92
7170;BME280;3626;42.656;23.312;2023-04-16T00:30:11;94014.06;;;9.67;69.10
7170;BME280;3626;42.656;23.312;2023-04-16T00:30:17;94017.63;;;9.66;69.36
7170;BME280;3626;42.656;23.312;2023-04-16T00:30:25;94021.19;;;9.65;69.54
7170;BME280;3626;42.656;23.312;2023-04-16T00:30:31;94021.34;;;9.63;69.77
7170;BME280;3626;42.656;23.312;2023-04-16T00:30:37;94017.97;;;9.63;69.66
7170;BME280;3626;42.656;23.312;2023-04-16T00:30:43;94019.94;;;9.61;69.94
7170;BME280;3626;42.656;23.312;2023-04-16T00:30:49;94013.16;;;9.60;70.46
7170;BME280;3626;42.656;23.312;2023-04-16T00:30:55;94021.06;;;9.58;70.20
7170;BME280;3626;42.656;23.312;2023-04-16T00:31:01;94023.84;;;9.57;70.67
7170;BME280;3626;42.656;23.312;2023-04-16T00:31:07;94022.59;;;9.52;70.68
7170;BME280;3626;42.656;23.312;2023-04-16T00:31:13;94025.31;;;9.51;70.95
7170;BME280;3626;42.656;23.312;2023-04-16T00:31:25;94023.91;;;9.48;71.28
7170;BME280;3626;42.656;23.312;2023-04-16T00:31:32;94026.81;;;9.45;71.75
7170;BME280;3626;42.656;23.312;2023-04-16T00:31:38;94024.44;;;9.44;71.97
7170;BME280;3626;42.656;23.312;2023-04-16T00:31:44;94022.81;;;9.43;72.43
7170;BME280;3626;42.656;23.312;2023-04-16T00:31:50;94027.16;;;9.42;72.10
7170;BME280;3626;42.656;23.312;2023-04-16T00:32:00;94028.13;;;9.41;71.96
7170;BME280;3626;42.656;23.312;2023-04-16T00:32:06;94023.16;;;9.40;72.22
7170;BME280;3626;42.656;23.312;2023-04-16T00:32:12;94022.38;;;9.39;72.32
7170;BME280;3626;42.656;23.312;2023-04-16T00:32:18;94021.59;;;9.39;72.53
7170;BME280;3626;42.656;23.312;2023-04-16T00:32:24;94020.75;;;9.38;72.24
7170;BME280;3626;42.656;23.312;2023-04-16T00:32:30;94023.31;;;9.38;72.16
7170;BME280;3626;42.656;23.312;2023-04-16T00:32:36;94023.50;;;9.37;72.25
7170;BME280;3626;42.656;23.312;2023-04-16T00:32:42;94022.53;;;9.38;72.20
7170;BME280;3626;42.656;23.312;2023-04-16T00:32:48;94025.28;;;9.36;72.09
7170;BME280;3626;42.656;23.312;2023-04-16T00:32:54;94016.75;;;9.36;72.67
7170;BME280;3626;42.656;23.312;2023-04-16T00:33:00;94021.91;;;9.36;72.34
7170;BME280;3626;42.656;23.312;2023-04-16T00:33:07;94020.31;;;9.35;71.91
7170;BME280;3626;42.656;23.312;2023-04-16T00:33:13;94018.69;;;9.34;72.09
7170;BME280;3626;42.656;23.312;2023-04-16T00:33:22;94015.50;;;9.32;71.92
7170;BME280;3626;42.656;23.312;2023-04-16T00:33:31;94014.72;;;9.31;71.66
7170;BME280;3626;42.656;23.312;2023-04-16T00:33:37;94018.25;;;9.30;71.66
7170;BME280;3626;42.656;23.312;2023-04-16T00:33:43;94016.66;;;9.29;71.30
7170;BME280;3626;42.656;23.312;2023-04-16T00:33:52;94017.63;;;9.28;71.21
7170;BME280;3626;42.656;23.312;2023-04-16T00:33:58;94016.03;;;9.27;71.67
7170;BME280;3626;42.656;23.312;2023-04-16T00:34:04;94018.59;;;9.27;71.70
7170;BME280;3626;42.656;23.312;2023-04-16T00:34:10;94019.59;;;9.26;71.59
7170;BME280;3626;42.656;23.312;2023-04-16T00:34:16;94021.34;;;9.25;71.25
7170;BME280;3626;42.656;23.312;2023-04-16T00:34:22;94018.75;;;9.25;71.69
7170;BME280;3626;42.656;23.312;2023-04-16T00:34:28;94023.13;;;9.25;72.14
7170;BME280;3626;42.656;23.312;2023-04-16T00:34:34;94025.69;;;9.25;71.97